createdAt,value
2022-11-06T00:00:34.352Z,6.60
2022-11-06T00:03:03.181Z,7.28
2022-11-06T00:05:49.256Z,8.05
2022-11-06T00:08:26.627Z,7.00
2022-11-06T00:10:54.704Z,6.60
2022-11-06T00:13:24.229Z,6.47
2022-11-06T00:15:52.310Z,6.22
2022-11-06T00:18:20.437Z,6.57
2022-11-06T00:20:48.480Z,6.00
2022-11-06T00:23:16.483Z,7.10
2022-11-06T00:25:44.563Z,6.85
2022-11-06T00:28:12.978Z,7.32
2022-11-06T00:30:42.547Z,6.63
2022-11-06T00:33:10.724Z,8.32
2022-11-06T00:35:39.143Z,6.45
2022-11-06T00:38:07.987Z,7.40
2022-11-06T00:40:36.184Z,7.72
2022-11-06T00:43:04.207Z,7.82
2022-11-06T00:45:32.352Z,7.57
2022-11-06T00:48:01.748Z,7.90
2022-11-06T00:50:29.856Z,6.82
2022-11-06T00:52:57.940Z,7.40
2022-11-06T00:55:26.197Z,6.95
2022-11-06T00:57:54.264Z,7.60
2022-11-06T01:00:22.709Z,7.30
2022-11-06T01:02:50.939Z,6.10
2022-11-06T01:05:20.653Z,6.15
2022-11-06T01:07:48.686Z,7.25
2022-11-06T01:10:16.848Z,5.95
2022-11-06T01:12:44.981Z,6.43
2022-11-06T01:15:13.154Z,6.38
2022-11-06T01:17:41.183Z,6.78
2022-11-06T01:20:10.450Z,6.90
2022-11-06T01:22:39.840Z,6.28
2022-11-06T01:25:09.481Z,6.30
2022-11-06T01:27:37.527Z,6.22
2022-11-06T01:30:07.358Z,5.88
2022-11-06T01:32:36.024Z,5.90
2022-11-06T01:35:04.196Z,5.82
2022-11-06T01:37:32.202Z,5.80
2022-11-06T01:40:01.615Z,5.93
2022-11-06T01:42:29.724Z,6.78
2022-11-06T01:45:22.062Z,6.05
2022-11-06T01:47:50.315Z,6.80
2022-11-06T01:50:19.048Z,5.75
2022-11-06T01:52:50.013Z,5.05
2022-11-06T01:55:25.077Z,5.20
2022-11-06T01:57:53.580Z,6.10
2022-11-06T02:00:21.878Z,6.00
2022-11-06T02:02:51.157Z,5.40
2022-11-06T02:05:19.468Z,6.18
2022-11-06T02:07:47.794Z,5.82
2022-11-06T02:10:16.025Z,6.72
2022-11-06T02:12:55.616Z,6.28
2022-11-06T02:15:35.505Z,6.57
2022-11-06T02:18:22.856Z,6.18
2022-11-06T02:21:15.464Z,6.47
2022-11-06T02:24:05.812Z,6.80
2022-11-06T02:27:23.214Z,6.20
2022-11-06T02:30:00.461Z,4.90
2022-11-06T02:32:33.975Z,5.43
2022-11-06T02:35:10.610Z,5.25
2022-11-06T02:37:40.418Z,5.00
2022-11-06T02:40:10.635Z,6.05
2022-11-06T02:42:42.140Z,6.53
2022-11-06T02:45:15.152Z,4.90
2022-11-06T02:47:45.005Z,5.00
2022-11-06T02:50:18.316Z,5.72
2022-11-06T02:52:51.446Z,5.53
2022-11-06T02:55:24.954Z,5.75
2022-11-06T02:57:56.119Z,5.97
2022-11-06T03:00:27.928Z,5.93
2022-11-06T03:03:00.301Z,5.88
2022-11-06T03:05:33.294Z,6.55
2022-11-06T03:08:08.519Z,7.55
2022-11-06T03:10:43.529Z,6.55
2022-11-06T03:13:19.306Z,6.57
2022-11-06T03:15:58.616Z,5.95
2022-11-06T03:18:36.356Z,6.13
2022-11-06T03:21:08.693Z,6.05
2022-11-06T03:23:44.628Z,6.80
2022-11-06T03:26:16.591Z,5.28
2022-11-06T03:28:52.216Z,5.22
2022-11-06T03:31:31.069Z,5.18
2022-11-06T03:34:03.185Z,4.93
2022-11-06T03:36:34.484Z,5.90
2022-11-06T03:39:05.082Z,4.72
2022-11-06T03:41:38.607Z,6.70
2022-11-06T03:44:09.916Z,7.10
2022-11-06T03:46:45.723Z,6.88
2022-11-06T03:49:18.060Z,6.20
2022-11-06T03:51:48.995Z,5.32
2022-11-06T03:54:22.303Z,5.40
2022-11-06T03:56:56.645Z,3.35
2022-11-06T03:59:29.083Z,3.58
2022-11-06T04:02:00.010Z,3.88
2022-11-06T04:04:33.608Z,3.10
2022-11-06T04:07:06.052Z,3.78
2022-11-06T04:09:53.788Z,3.28
2022-11-06T04:12:43.444Z,3.22
2022-11-06T04:15:15.913Z,3.25
2022-11-06T04:17:45.679Z,3.55
2022-11-06T04:20:37.131Z,4.65
2022-11-06T04:23:13.935Z,2.92
2022-11-06T04:26:11.808Z,3.53
2022-11-06T04:28:47.851Z,3.10
2022-11-06T04:31:27.559Z,3.70
2022-11-06T04:34:01.680Z,4.00
2022-11-06T04:36:38.548Z,5.10
2022-11-06T04:39:14.950Z,4.82
2022-11-06T04:41:51.212Z,4.88
2022-11-06T04:44:27.740Z,5.32
2022-11-06T04:47:00.134Z,5.22
2022-11-06T04:49:34.826Z,4.70
2022-11-06T04:52:05.466Z,4.72
2022-11-06T04:54:34.093Z,5.55
2022-11-06T04:57:02.719Z,5.68
2022-11-06T04:59:33.803Z,6.90
2022-11-06T05:02:02.168Z,6.78
2022-11-06T05:04:32.606Z,7.45
2022-11-06T05:07:00.969Z,6.38
2022-11-06T05:09:29.201Z,6.85
2022-11-06T05:11:57.251Z,6.07
2022-11-06T05:14:25.681Z,6.65
2022-11-06T05:16:53.713Z,6.55
2022-11-06T05:19:21.788Z,6.93
2022-11-06T05:22:08.476Z,6.60
2022-11-06T05:24:36.639Z,5.95
2022-11-06T05:27:05.016Z,6.15
2022-11-06T05:29:33.069Z,5.20
2022-11-06T05:32:01.133Z,6.55
2022-11-06T05:34:29.350Z,7.47
2022-11-06T05:36:59.479Z,6.70
2022-11-06T05:39:27.526Z,6.93
2022-11-06T05:41:55.583Z,6.05
2022-11-06T05:44:24.041Z,6.90
2022-11-06T05:46:52.163Z,5.57
2022-11-06T05:49:20.356Z,5.40
2022-11-06T05:51:49.076Z,5.82
2022-11-06T05:54:18.639Z,5.13
2022-11-06T05:56:46.761Z,5.25
2022-11-06T05:59:14.880Z,5.45
2022-11-06T06:01:43.137Z,3.35
2022-11-06T06:04:11.369Z,3.53
2022-11-06T06:06:40.148Z,3.20
2022-11-06T06:09:08.303Z,3.95
2022-11-06T06:11:37.695Z,4.35
2022-11-06T06:14:05.810Z,4.47
2022-11-06T06:16:33.927Z,4.35
2022-11-06T06:19:02.072Z,4.35
2022-11-06T06:21:30.312Z,3.70
2022-11-06T06:23:58.381Z,3.92
2022-11-06T06:26:26.477Z,4.00
2022-11-06T06:28:55.951Z,4.00
2022-11-06T06:31:24.366Z,4.57
2022-11-06T06:33:52.828Z,3.70
2022-11-06T06:36:20.941Z,4.50
2022-11-06T06:38:48.981Z,3.20
2022-11-06T06:41:17.341Z,3.60
2022-11-06T06:43:48.153Z,3.25
2022-11-06T06:46:18.054Z,3.83
2022-11-06T06:48:46.253Z,3.75
2022-11-06T06:51:14.728Z,4.15
2022-11-06T06:53:44.584Z,4.32
2022-11-06T06:56:12.666Z,4.45
2022-11-06T06:58:40.687Z,4.72
2022-11-06T07:01:10.296Z,4.05
2022-11-06T07:03:40.423Z,4.18
2022-11-06T07:06:08.957Z,4.07
2022-11-06T07:08:37.344Z,4.60
2022-11-06T07:11:07.555Z,4.75
2022-11-06T07:13:36.741Z,4.07
2022-11-06T07:16:06.085Z,4.85
2022-11-06T07:18:34.389Z,4.13
2022-11-06T07:21:05.608Z,4.32
2022-11-06T07:23:33.647Z,4.13
2022-11-06T07:26:01.868Z,4.45
2022-11-06T07:28:30.011Z,4.65
2022-11-06T07:31:00.685Z,4.10
2022-11-06T07:33:28.998Z,4.80
2022-11-06T07:35:57.165Z,4.80
2022-11-06T07:38:26.548Z,4.22
2022-11-06T07:40:54.621Z,4.90
2022-11-06T07:43:24.708Z,4.75
2022-11-06T07:45:52.799Z,5.57
2022-11-06T07:48:20.839Z,5.05
2022-11-06T07:50:48.902Z,4.53
2022-11-06T07:53:17.010Z,5.03
2022-11-06T07:55:50.656Z,5.40
2022-11-06T07:58:19.013Z,4.35
2022-11-06T08:00:51.433Z,3.85
2022-11-06T08:03:20.232Z,4.63
2022-11-06T08:05:48.827Z,5.15
2022-11-06T08:08:17.141Z,4.72
2022-11-06T08:10:47.523Z,4.78
2022-11-06T08:13:19.007Z,5.03
2022-11-06T08:15:47.167Z,4.68
2022-11-06T08:18:15.706Z,4.72
2022-11-06T08:20:44.118Z,4.00
2022-11-06T08:23:13.952Z,4.88
2022-11-06T08:25:42.626Z,5.40
2022-11-06T08:28:11.199Z,6.05
2022-11-06T08:30:40.834Z,5.63
2022-11-06T08:33:09.487Z,5.57
2022-11-06T08:35:37.875Z,5.00
2022-11-06T08:38:05.940Z,4.80
2022-11-06T08:40:34.580Z,8.15
2022-11-06T08:43:04.115Z,4.57
2022-11-06T08:45:40.542Z,5.30
2022-11-06T08:48:09.564Z,5.78
2022-11-06T08:50:38.968Z,4.75
2022-11-06T08:53:08.541Z,4.57
2022-11-06T08:55:38.911Z,5.28
2022-11-06T08:58:07.900Z,4.30
2022-11-06T09:00:36.771Z,4.25
2022-11-06T09:03:08.103Z,3.67
2022-11-06T09:05:36.580Z,3.83
2022-11-06T09:08:04.965Z,4.82
2022-11-06T09:10:33.051Z,3.63
2022-11-06T09:13:01.189Z,4.07
2022-11-06T09:15:29.271Z,3.63
2022-11-06T09:17:57.815Z,3.78
2022-11-06T09:20:27.968Z,3.63
2022-11-06T09:23:00.722Z,3.50
2022-11-06T09:25:29.208Z,3.03
2022-11-06T09:27:59.432Z,4.32
2022-11-06T09:30:29.480Z,3.67
2022-11-06T09:32:58.916Z,3.65
2022-11-06T09:35:30.132Z,2.60
2022-11-06T09:38:03.596Z,2.92
2022-11-06T09:40:34.845Z,3.15
2022-11-06T09:43:31.836Z,3.58
2022-11-06T09:46:20.551Z,3.38
2022-11-06T09:48:54.808Z,2.88
2022-11-06T09:51:34.029Z,2.78
2022-11-06T09:54:06.969Z,3.63
2022-11-06T09:56:38.870Z,3.17
2022-11-06T09:59:11.407Z,3.13
2022-11-06T10:01:43.902Z,2.70
2022-11-06T10:04:24.659Z,2.67
2022-11-06T10:06:54.479Z,3.00
2022-11-06T10:09:22.589Z,2.65
2022-11-06T10:11:59.006Z,1.92
2022-11-06T10:14:39.902Z,2.30
2022-11-06T10:17:15.636Z,2.60
2022-11-06T10:19:50.702Z,2.38
2022-11-06T10:22:25.214Z,2.20
2022-11-06T10:25:01.302Z,2.53
2022-11-06T10:27:38.528Z,1.80
2022-11-06T10:30:11.431Z,2.63
2022-11-06T10:33:05.439Z,2.10
2022-11-06T10:35:38.207Z,4.45
2022-11-06T10:38:13.413Z,7.75
2022-11-06T10:40:45.422Z,3.35
2022-11-06T10:43:28.012Z,1.50
2022-11-06T10:46:04.084Z,2.33
2022-11-06T10:48:38.594Z,3.08
2022-11-06T10:51:21.840Z,2.30
2022-11-06T10:54:04.864Z,2.13
2022-11-06T10:56:57.202Z,1.83
2022-11-06T10:59:25.668Z,2.15
2022-11-06T11:01:54.846Z,2.65
2022-11-06T11:04:22.983Z,1.95
2022-11-06T11:06:51.211Z,1.33
2022-11-06T11:09:32.552Z,1.80
2022-11-06T11:12:01.286Z,1.83
2022-11-06T11:14:31.413Z,2.83
2022-11-06T11:17:02.133Z,1.58
2022-11-06T11:19:41.532Z,1.42
2022-11-06T11:22:20.180Z,1.67
2022-11-06T11:25:03.520Z,2.10
2022-11-06T11:27:35.981Z,2.08
2022-11-06T11:30:05.522Z,2.50
2022-11-06T11:32:34.095Z,2.05
2022-11-06T11:35:12.382Z,2.00
2022-11-06T11:37:40.535Z,1.70
2022-11-06T11:40:36.288Z,2.42
2022-11-06T11:43:22.393Z,1.77
2022-11-06T11:46:13.247Z,1.77
2022-11-06T11:48:46.913Z,2.17
2022-11-06T11:51:35.022Z,1.73
2022-11-06T11:54:07.755Z,1.60
2022-11-06T11:57:06.247Z,2.10
2022-11-06T11:59:43.331Z,4.43
2022-11-06T12:02:26.992Z,1.50
2022-11-06T12:04:59.778Z,2.05
2022-11-06T12:07:30.521Z,1.77
2022-11-06T12:09:59.616Z,1.60
2022-11-06T12:12:32.938Z,1.63
2022-11-06T12:15:15.860Z,1.75
2022-11-06T12:17:47.832Z,1.98
2022-11-06T12:20:20.536Z,2.83
2022-11-06T12:22:50.501Z,2.08
2022-11-06T12:25:24.843Z,1.13
2022-11-06T12:27:57.786Z,1.73
2022-11-06T12:30:26.296Z,1.55
2022-11-06T12:33:02.264Z,1.58
2022-11-06T12:35:32.161Z,1.58
2022-11-06T12:38:12.302Z,1.80
2022-11-06T12:40:42.877Z,2.10
2022-11-06T12:43:20.606Z,1.55
2022-11-06T12:46:30.470Z,1.90
2022-11-06T12:49:36.116Z,2.42
2022-11-06T12:52:17.323Z,2.95
2022-11-06T12:55:04.092Z,1.90
2022-11-06T12:57:41.013Z,1.70
2022-11-06T13:00:14.155Z,2.05
2022-11-06T13:03:10.761Z,1.98
2022-11-06T13:05:46.930Z,2.22
2022-11-06T13:08:25.898Z,3.05
2022-11-06T13:11:07.673Z,3.22
2022-11-06T13:13:44.135Z,2.97
2022-11-06T13:16:26.314Z,2.78
2022-11-06T13:18:59.501Z,2.80
2022-11-06T13:21:38.750Z,2.58
2022-11-06T13:24:13.260Z,2.55
2022-11-06T13:26:46.227Z,1.88
2022-11-06T13:29:18.481Z,1.83
2022-11-06T13:31:53.183Z,1.52
2022-11-06T13:34:25.502Z,1.55
2022-11-06T13:36:54.271Z,2.05
2022-11-06T13:39:29.588Z,1.88
2022-11-06T13:41:58.762Z,1.83
2022-11-06T13:44:27.882Z,3.60
2022-11-06T13:47:05.173Z,3.20
2022-11-06T13:49:40.640Z,2.78
2022-11-06T13:52:17.514Z,2.50
2022-11-06T13:55:04.521Z,1.88
2022-11-06T13:57:54.232Z,1.73
2022-11-06T14:00:23.724Z,2.10
2022-11-06T14:03:28.418Z,1.65
2022-11-06T14:06:01.113Z,2.08
2022-11-06T14:08:34.410Z,1.80
2022-11-06T14:11:06.556Z,1.35
2022-11-06T14:13:36.697Z,1.80
2022-11-06T14:16:25.082Z,1.52
2022-11-06T14:19:08.039Z,1.58
2022-11-06T14:21:51.939Z,1.80
2022-11-06T14:24:41.422Z,1.70
2022-11-06T14:27:34.217Z,1.65
2022-11-06T14:30:05.223Z,1.63
2022-11-06T14:32:45.106Z,1.90
2022-11-06T14:35:49.259Z,1.75
2022-11-06T14:38:30.889Z,1.52
2022-11-06T14:40:59.831Z,1.63
2022-11-06T14:43:30.660Z,1.80
2022-11-06T14:46:02.776Z,2.00
2022-11-06T14:48:34.342Z,2.08
2022-11-06T14:51:06.607Z,2.28
2022-11-06T14:53:39.203Z,2.03
2022-11-06T14:56:10.356Z,1.65
2022-11-06T14:58:41.239Z,1.70
2022-11-06T15:01:16.579Z,1.60
2022-11-06T15:03:50.367Z,1.88
2022-11-06T15:06:43.290Z,2.30
2022-11-06T15:09:16.528Z,2.50
2022-11-06T15:12:01.498Z,1.70
2022-11-06T15:14:57.573Z,1.55
2022-11-06T15:17:28.427Z,1.95
2022-11-06T15:20:05.973Z,1.77
2022-11-06T15:22:41.052Z,2.97
2022-11-06T15:25:20.942Z,2.35
2022-11-06T15:27:57.081Z,1.98
2022-11-06T15:30:26.950Z,2.38
2022-11-06T15:32:56.273Z,1.70
2022-11-06T15:35:27.407Z,7.38
2022-11-06T15:38:04.371Z,2.83
2022-11-06T15:40:35.557Z,2.58
2022-11-06T15:43:23.236Z,6.80
2022-11-06T15:46:07.308Z,2.15
2022-11-06T15:48:36.115Z,2.03
2022-11-06T15:51:06.013Z,2.72
2022-11-06T15:53:40.616Z,1.85
2022-11-06T15:56:10.316Z,2.50
2022-11-06T15:58:39.545Z,6.97
2022-11-06T16:01:09.302Z,10.93
2022-11-06T16:03:48.406Z,3.22
2022-11-06T16:06:16.835Z,3.45
2022-11-06T16:08:47.118Z,4.22
2022-11-06T16:11:18.768Z,2.45
2022-11-06T16:13:47.602Z,1.88
2022-11-06T16:16:33.990Z,2.17
2022-11-06T16:19:03.769Z,2.22
2022-11-06T16:21:34.630Z,2.50
2022-11-06T16:24:12.280Z,3.33
2022-11-06T16:26:46.990Z,2.80
2022-11-06T16:29:20.222Z,2.83
2022-11-06T16:31:49.487Z,2.60
2022-11-06T16:34:22.569Z,2.63
2022-11-06T16:36:53.955Z,2.40
2022-11-06T16:39:49.164Z,3.33
2022-11-06T16:42:30.927Z,2.75
2022-11-06T16:45:17.825Z,2.70
2022-11-06T16:48:26.415Z,2.78
2022-11-06T16:50:56.543Z,2.65
2022-11-06T16:53:27.427Z,3.72
2022-11-06T16:55:59.373Z,3.15
2022-11-06T16:58:28.696Z,3.20
2022-11-06T17:00:59.555Z,3.47
2022-11-06T17:03:34.995Z,2.88
2022-11-06T17:06:03.669Z,3.10
2022-11-06T17:08:36.469Z,3.45
2022-11-06T17:11:21.672Z,3.47
2022-11-06T17:13:51.451Z,4.35
2022-11-06T17:16:21.739Z,4.50
2022-11-06T17:18:49.967Z,3.38
2022-11-06T17:21:20.452Z,3.17
2022-11-06T17:23:49.151Z,4.13
2022-11-06T17:26:22.590Z,5.35
2022-11-06T17:28:50.860Z,5.05
2022-11-06T17:31:20.826Z,4.20
2022-11-06T17:33:49.443Z,4.80
2022-11-06T17:36:19.738Z,5.75
2022-11-06T17:38:49.326Z,4.35
2022-11-06T17:41:29.784Z,5.22
2022-11-06T17:43:59.199Z,4.45
2022-11-06T17:46:28.552Z,4.72
2022-11-06T17:48:57.208Z,3.10
2022-11-06T17:51:43.188Z,3.90
2022-11-06T17:54:12.160Z,3.85
2022-11-06T17:56:42.180Z,4.18
2022-11-06T17:59:11.521Z,5.03
2022-11-06T18:01:40.146Z,4.57
2022-11-06T18:04:08.592Z,4.35
2022-11-06T18:06:37.070Z,3.47
2022-11-06T18:09:07.709Z,4.63
2022-11-06T18:11:36.149Z,5.95
2022-11-06T18:14:05.612Z,3.97
2022-11-06T18:16:39.792Z,4.03
2022-11-06T18:19:13.473Z,5.38
2022-11-06T18:21:41.656Z,4.47
2022-11-06T18:24:10.070Z,4.03
2022-11-06T18:26:38.357Z,4.55
2022-11-06T18:29:08.606Z,4.68
2022-11-06T18:31:37.079Z,4.70
2022-11-06T18:34:06.830Z,4.10
2022-11-06T18:36:36.664Z,3.80
2022-11-06T18:39:04.997Z,4.00
2022-11-06T18:41:34.429Z,4.00
2022-11-06T18:44:02.907Z,4.35
2022-11-06T18:46:32.825Z,4.40
2022-11-06T18:49:01.140Z,6.72
2022-11-06T18:51:36.156Z,6.47
2022-11-06T18:54:07.808Z,4.25
2022-11-06T18:56:37.270Z,7.22
2022-11-06T18:59:07.016Z,4.50
2022-11-06T19:01:36.824Z,5.68
2022-11-06T19:04:05.964Z,5.20
2022-11-06T19:06:34.291Z,4.47
2022-11-06T19:09:03.158Z,3.53
2022-11-06T19:11:31.537Z,3.30
2022-11-06T19:13:59.824Z,3.33
2022-11-06T19:16:28.208Z,3.58
2022-11-06T19:21:31.076Z,3.90
2022-11-06T19:24:04.700Z,3.72
2022-11-06T19:26:33.865Z,3.80
2022-11-06T19:29:03.425Z,3.00
2022-11-06T19:31:33.528Z,3.58
2022-11-06T19:34:04.457Z,3.45
2022-11-06T19:36:33.297Z,3.80
2022-11-06T19:39:01.596Z,2.83
2022-11-06T19:41:30.398Z,3.78
2022-11-06T19:43:58.915Z,3.33
2022-11-06T19:46:33.910Z,4.15
2022-11-06T19:49:06.421Z,6.57
2022-11-06T19:51:37.381Z,5.55
2022-11-06T19:54:07.512Z,3.20
2022-11-06T19:56:35.788Z,2.80
2022-11-06T19:59:04.527Z,2.38
2022-11-06T20:01:34.439Z,2.88
2022-11-06T20:04:02.831Z,2.63
2022-11-06T20:06:33.218Z,1.92
2022-11-06T20:09:01.704Z,2.13
2022-11-06T20:11:30.049Z,2.10
2022-11-06T20:13:58.294Z,1.85
2022-11-06T20:16:27.419Z,2.10
2022-11-06T20:18:57.068Z,2.08
2022-11-06T20:21:27.958Z,2.20
2022-11-06T20:23:58.243Z,2.10
2022-11-06T20:26:26.524Z,2.00
2022-11-06T20:28:54.741Z,1.88
2022-11-06T20:31:23.122Z,1.83
2022-11-06T20:33:51.800Z,2.40
2022-11-06T20:36:22.965Z,1.85
2022-11-06T20:38:51.654Z,1.90
2022-11-06T20:41:21.557Z,1.75
2022-11-06T20:43:50.098Z,2.15
2022-11-06T20:46:19.294Z,2.05
2022-11-06T20:48:47.812Z,2.00
2022-11-06T20:51:18.019Z,1.95
2022-11-06T20:53:46.945Z,1.80
2022-11-06T20:56:17.593Z,1.92
2022-11-06T20:58:48.129Z,1.98
2022-11-06T21:01:19.745Z,1.92
2022-11-06T21:03:49.639Z,1.73
2022-11-06T21:06:18.952Z,2.20
2022-11-06T21:08:47.493Z,1.83
2022-11-06T21:11:18.982Z,2.22
2022-11-06T21:13:50.789Z,2.20
2022-11-06T21:16:21.725Z,2.15
2022-11-06T21:18:50.037Z,1.70
2022-11-06T21:21:21.109Z,1.95
2022-11-06T21:23:50.337Z,2.20
2022-11-06T21:26:20.258Z,1.63
2022-11-06T21:28:50.105Z,1.95
2022-11-06T21:31:20.075Z,2.25
2022-11-06T21:33:50.140Z,2.10
2022-11-06T21:36:20.823Z,2.00
2022-11-06T21:38:49.132Z,2.17
2022-11-06T21:41:19.477Z,2.03
2022-11-06T21:43:49.138Z,2.40
2022-11-06T21:46:18.063Z,2.10
2022-11-06T21:48:47.577Z,1.92
2022-11-06T21:51:20.335Z,2.10
2022-11-06T21:54:06.899Z,1.90
2022-11-06T21:56:35.756Z,2.50
2022-11-06T21:59:07.224Z,2.15
2022-11-06T22:01:35.581Z,2.13
2022-11-06T22:04:03.892Z,1.95
2022-11-06T22:06:31.988Z,2.03
2022-11-06T22:09:02.108Z,1.95
2022-11-06T22:11:32.348Z,2.67
2022-11-06T22:14:02.660Z,2.13
2022-11-06T22:16:34.529Z,2.17
2022-11-06T22:19:03.034Z,2.20
2022-11-06T22:21:31.643Z,2.20
2022-11-06T22:23:59.797Z,1.70
2022-11-06T22:26:30.017Z,1.85
2022-11-06T22:28:59.920Z,2.13
2022-11-06T22:31:29.390Z,2.30
2022-11-06T22:33:59.794Z,2.45
2022-11-06T22:36:28.134Z,2.42
2022-11-06T22:38:57.602Z,2.60
2022-11-06T22:41:26.217Z,1.90
2022-11-06T22:43:58.633Z,1.90
2022-11-06T22:46:27.201Z,2.42
2022-11-06T22:48:55.399Z,2.30
2022-11-06T22:51:26.427Z,2.08
2022-11-06T22:53:54.923Z,1.83
2022-11-06T22:56:24.472Z,2.47
2022-11-06T22:58:54.376Z,2.38
2022-11-06T23:01:24.209Z,2.47
2022-11-06T23:03:56.572Z,2.63
2022-11-06T23:06:27.308Z,2.25
2022-11-06T23:08:55.503Z,2.92
2022-11-06T23:11:25.370Z,3.00
2022-11-06T23:13:53.996Z,2.42
2022-11-06T23:16:44.494Z,2.40
2022-11-06T23:19:14.747Z,2.67
2022-11-06T23:21:44.966Z,2.47
2022-11-06T23:24:13.188Z,2.38
2022-11-06T23:26:42.672Z,2.33
2022-11-06T23:29:10.729Z,2.53
2022-11-06T23:31:38.771Z,3.83
2022-11-06T23:34:06.842Z,2.55
2022-11-06T23:36:35.448Z,2.50
2022-11-06T23:39:05.255Z,2.53
2022-11-06T23:41:45.749Z,2.17
2022-11-06T23:44:32.501Z,1.65
2022-11-06T23:47:00.723Z,2.20
2022-11-06T23:49:28.770Z,1.92
2022-11-06T23:51:56.835Z,2.45
2022-11-06T23:54:26.506Z,2.53
2022-11-06T23:56:54.553Z,2.00
2022-11-06T23:59:22.788Z,1.75
